createdAt,value
2023-05-14T00:04:58.795Z,14.84
2023-05-14T00:10:01.036Z,14.74
2023-05-14T00:15:03.633Z,14.76
2023-05-14T00:20:07.662Z,14.72
2023-05-14T00:25:10.096Z,14.66
2023-05-14T00:30:12.531Z,14.35
2023-05-14T00:35:14.543Z,14.35
2023-05-14T00:40:16.853Z,14.32
2023-05-14T00:45:19.115Z,14.16
2023-05-14T00:50:21.639Z,14.16
2023-05-14T00:55:23.904Z,14.22
2023-05-14T01:00:26.253Z,14.13
2023-05-14T01:05:35.774Z,14.06
2023-05-14T01:10:52.659Z,13.93
2023-05-14T01:15:57.724Z,13.99
2023-05-14T01:20:59.665Z,13.90
2023-05-14T01:26:01.767Z,13.91
2023-05-14T01:31:09.810Z,13.84
2023-05-14T01:36:11.899Z,13.71
2023-05-14T01:41:14.995Z,13.68
2023-05-14T01:46:20.873Z,13.59
2023-05-14T01:51:22.968Z,13.52
2023-05-14T01:56:26.020Z,13.47
2023-05-14T02:01:28.338Z,13.48
2023-05-14T02:06:30.348Z,13.36
2023-05-14T02:11:35.429Z,13.18
2023-05-14T02:16:37.505Z,13.11
2023-05-14T02:21:39.717Z,13.10
2023-05-14T02:26:42.363Z,12.86
2023-05-14T02:31:44.408Z,12.77
2023-05-14T02:36:46.483Z,12.76
2023-05-14T02:41:48.455Z,12.71
2023-05-14T02:46:50.501Z,12.75
2023-05-14T02:51:54.434Z,12.65
2023-05-14T02:56:56.468Z,12.62
2023-05-14T03:01:58.635Z,12.56
2023-05-14T03:07:01.213Z,12.42
2023-05-14T03:12:03.456Z,12.23
2023-05-14T03:17:05.555Z,12.16
2023-05-14T03:22:07.462Z,12.10
2023-05-14T03:27:09.457Z,12.00
2023-05-14T03:32:11.547Z,11.80
2023-05-14T03:37:13.496Z,11.79
2023-05-14T03:42:15.506Z,11.81
2023-05-14T03:47:17.483Z,11.63
2023-05-14T03:52:19.376Z,11.40
2023-05-14T03:57:21.449Z,11.33
2023-05-14T04:02:23.648Z,11.21
2023-05-14T04:07:25.519Z,11.18
2023-05-14T04:12:28.673Z,11.08
2023-05-14T04:17:31.614Z,11.18
2023-05-14T04:22:33.745Z,11.02
2023-05-14T04:27:35.782Z,10.99
2023-05-14T04:32:38.279Z,11.10
2023-05-14T04:37:40.708Z,11.08
2023-05-14T04:42:42.993Z,11.09
2023-05-14T04:47:45.237Z,10.99
2023-05-14T04:52:47.222Z,11.00
2023-05-14T04:57:49.363Z,10.87
2023-05-14T05:02:51.362Z,10.63
2023-05-14T05:07:53.416Z,10.52
2023-05-14T05:12:55.409Z,10.65
2023-05-14T05:17:57.313Z,10.67
2023-05-14T05:22:59.646Z,10.63
2023-05-14T05:28:01.721Z,10.57
2023-05-14T05:33:03.786Z,10.43
2023-05-14T05:38:05.785Z,10.42
2023-05-14T05:43:07.853Z,10.65
2023-05-14T05:48:09.818Z,10.68
2023-05-14T05:53:12.574Z,10.76
2023-05-14T05:58:16.063Z,10.72
2023-05-14T06:03:18.004Z,10.67
2023-05-14T06:08:19.944Z,10.61
2023-05-14T06:13:22.168Z,10.62
2023-05-14T06:18:24.109Z,10.68
2023-05-14T06:23:26.515Z,10.88
2023-05-14T06:28:28.768Z,10.87
2023-05-14T06:33:31.526Z,10.94
2023-05-14T06:38:33.909Z,10.96
2023-05-14T06:43:35.807Z,11.08
2023-05-14T06:48:37.884Z,11.19
2023-05-14T06:53:42.750Z,11.39
2023-05-14T06:58:44.713Z,11.44
2023-05-14T07:03:46.870Z,11.71
2023-05-14T07:08:48.864Z,11.83
2023-05-14T07:13:50.786Z,11.97
2023-05-14T07:18:52.885Z,12.13
2023-05-14T07:23:54.968Z,12.28
2023-05-14T07:28:56.829Z,12.37
2023-05-14T07:33:58.876Z,12.57
2023-05-14T07:39:01.101Z,12.78
2023-05-14T07:44:03.223Z,13.06
2023-05-14T07:49:05.103Z,13.15
2023-05-14T07:54:07.018Z,13.39
2023-05-14T07:59:08.990Z,13.72
2023-05-14T08:04:16.222Z,13.99
2023-05-14T08:09:18.331Z,14.40
2023-05-14T08:14:21.646Z,14.68
2023-05-14T08:19:24.525Z,14.54
2023-05-14T08:24:26.855Z,14.67
2023-05-14T08:29:28.946Z,15.51
2023-05-14T08:34:33.953Z,16.36
2023-05-14T08:39:36.001Z,17.62
2023-05-14T08:44:44.241Z,18.53
2023-05-14T08:49:55.594Z,19.24
2023-05-14T08:54:59.656Z,20.11
2023-05-14T09:00:08.441Z,20.57
2023-05-14T09:05:10.786Z,21.60
2023-05-14T09:10:13.276Z,21.81
2023-05-14T09:15:15.726Z,22.27
2023-05-14T09:20:17.957Z,22.89
2023-05-14T09:25:19.890Z,23.04
2023-05-14T09:30:22.335Z,23.04
2023-05-14T09:35:25.016Z,23.66
2023-05-14T09:40:27.688Z,24.26
2023-05-14T09:45:30.105Z,24.65
2023-05-14T09:50:32.318Z,23.19
2023-05-14T09:55:34.248Z,22.90
2023-05-14T10:00:36.605Z,23.45
2023-05-14T10:05:41.279Z,22.69
2023-05-14T10:10:43.594Z,22.27
2023-05-14T10:15:50.944Z,23.22
2023-05-14T10:21:06.386Z,23.12
2023-05-14T10:26:11.891Z,22.49
2023-05-14T10:31:14.061Z,21.70
2023-05-14T10:36:17.768Z,21.94
2023-05-14T10:41:21.672Z,21.47
2023-05-14T10:46:23.684Z,21.68
2023-05-14T10:51:25.864Z,21.46
2023-05-14T10:56:27.823Z,20.96
2023-05-14T11:01:30.134Z,20.65
2023-05-14T11:06:33.225Z,20.41
2023-05-14T11:11:36.084Z,20.36
2023-05-14T11:16:38.225Z,20.38
2023-05-14T11:21:40.136Z,20.23
2023-05-14T11:26:42.253Z,20.17
2023-05-14T11:31:44.757Z,19.76
2023-05-14T11:36:46.735Z,19.55
2023-05-14T11:41:48.936Z,19.76
2023-05-14T11:46:57.940Z,19.98
2023-05-14T11:52:01.408Z,19.89
2023-05-14T11:57:14.427Z,19.76
2023-05-14T12:02:18.775Z,19.63
2023-05-14T12:07:20.854Z,19.46
2023-05-14T12:12:23.149Z,19.26
2023-05-14T12:17:25.184Z,19.00
2023-05-14T12:22:27.803Z,19.04
2023-05-14T12:27:30.797Z,19.06
2023-05-14T12:32:36.399Z,18.96
2023-05-14T12:37:42.116Z,19.13
2023-05-14T12:42:44.157Z,19.27
2023-05-14T12:47:46.320Z,19.49
2023-05-14T12:52:48.423Z,19.66
2023-05-14T12:57:50.523Z,19.74
2023-05-14T13:02:52.451Z,19.25
2023-05-14T13:07:54.411Z,19.15
2023-05-14T13:12:57.208Z,18.88
2023-05-14T13:17:59.537Z,19.12
2023-05-14T13:23:01.531Z,19.34
2023-05-14T13:28:03.461Z,19.39
2023-05-14T13:33:05.882Z,19.31
2023-05-14T13:38:07.946Z,19.33
2023-05-14T13:43:10.148Z,19.38
2023-05-14T13:48:12.150Z,19.66
2023-05-14T13:53:14.077Z,19.98
2023-05-14T13:58:16.359Z,19.73
2023-05-14T14:03:18.661Z,19.85
2023-05-14T14:08:23.452Z,19.88
2023-05-14T14:13:26.512Z,20.09
2023-05-14T14:18:28.477Z,20.24
2023-05-14T14:23:30.889Z,20.20
2023-05-14T14:28:32.750Z,20.43
2023-05-14T14:33:34.872Z,20.56
2023-05-14T14:38:36.865Z,20.64
2023-05-14T14:43:41.263Z,20.52
2023-05-14T14:48:44.227Z,20.30
2023-05-14T14:53:46.189Z,20.26
2023-05-14T14:58:48.257Z,20.34
2023-05-14T15:03:50.119Z,20.35
2023-05-14T15:08:52.163Z,20.39
2023-05-14T15:13:54.237Z,20.47
2023-05-14T15:18:56.140Z,20.70
2023-05-14T15:23:58.198Z,20.79
2023-05-14T15:29:00.139Z,20.75
2023-05-14T15:34:02.207Z,20.50
2023-05-14T15:39:04.314Z,20.47
2023-05-14T15:44:06.390Z,20.32
2023-05-14T15:49:08.583Z,20.25
2023-05-14T15:54:10.688Z,20.00
2023-05-14T15:59:14.655Z,19.74
2023-05-14T16:04:16.417Z,19.49
2023-05-14T16:09:18.237Z,19.33
2023-05-14T16:14:20.487Z,19.40
2023-05-14T16:19:22.537Z,19.28
2023-05-14T16:24:24.527Z,19.12
2023-05-14T16:29:26.421Z,19.12
2023-05-14T16:34:28.444Z,19.19
2023-05-14T16:39:30.540Z,19.40
2023-05-14T16:44:32.896Z,19.38
2023-05-14T16:49:34.964Z,19.27
2023-05-14T16:54:37.220Z,19.33
2023-05-14T16:59:39.118Z,19.28
2023-05-14T17:04:42.386Z,19.21
2023-05-14T17:09:44.328Z,19.22
2023-05-14T17:14:46.374Z,19.02
2023-05-14T17:19:48.414Z,18.99
2023-05-14T17:24:50.593Z,18.85
2023-05-14T17:29:52.581Z,18.73
2023-05-14T17:34:54.620Z,18.84
2023-05-14T17:39:56.730Z,18.86
2023-05-14T17:44:58.946Z,18.87
2023-05-14T17:50:00.925Z,18.80
2023-05-14T17:55:03.023Z,18.73
2023-05-14T18:00:05.734Z,18.66
2023-05-14T18:05:13.340Z,18.54
2023-05-14T18:10:15.364Z,18.55
2023-05-14T18:15:17.507Z,18.38
2023-05-14T18:20:19.856Z,18.38
2023-05-14T18:25:21.859Z,18.30
2023-05-14T18:30:23.878Z,18.18
2023-05-14T18:35:26.183Z,18.05
2023-05-14T18:40:28.456Z,17.98
2023-05-14T18:45:30.702Z,17.85
2023-05-14T18:50:32.810Z,17.61
2023-05-14T18:55:37.661Z,17.53
2023-05-14T19:00:39.633Z,17.54
2023-05-14T19:05:41.640Z,17.43
2023-05-14T19:10:43.790Z,17.56
2023-05-14T19:15:46.218Z,17.46
2023-05-14T19:20:48.435Z,17.52
2023-05-14T19:25:50.430Z,17.46
2023-05-14T19:30:53.447Z,17.40
2023-05-14T19:35:56.150Z,17.37
2023-05-14T19:40:58.118Z,17.24
2023-05-14T19:46:01.650Z,17.20
2023-05-14T19:51:04.025Z,17.02
2023-05-14T19:56:06.701Z,16.99
2023-05-14T20:01:08.862Z,16.80
2023-05-14T20:06:11.604Z,16.71
2023-05-14T20:11:15.619Z,16.54
2023-05-14T20:16:18.102Z,16.46
2023-05-14T20:21:20.192Z,16.40
2023-05-14T20:26:22.398Z,16.26
2023-05-14T20:31:24.494Z,16.12
2023-05-14T20:36:26.746Z,16.01
2023-05-14T20:41:28.700Z,15.94
2023-05-14T20:46:31.258Z,15.90
2023-05-14T20:51:33.475Z,15.75
2023-05-14T20:56:36.787Z,15.76
2023-05-14T21:01:38.960Z,15.62
2023-05-14T21:06:41.144Z,15.65
2023-05-14T21:11:43.410Z,15.72
2023-05-14T21:16:45.869Z,15.62
2023-05-14T21:21:48.133Z,15.71
2023-05-14T21:26:52.234Z,15.65
2023-05-14T21:31:55.531Z,15.61
2023-05-14T21:36:57.527Z,15.58
2023-05-14T21:41:59.392Z,15.56
2023-05-14T21:47:01.400Z,15.46
2023-05-14T21:52:03.864Z,15.43
2023-05-14T21:57:06.625Z,15.49
2023-05-14T22:02:09.012Z,15.40
2023-05-14T22:07:11.469Z,15.28
2023-05-14T22:12:13.425Z,15.08
2023-05-14T22:17:15.563Z,15.07
2023-05-14T22:22:17.699Z,15.05
2023-05-14T22:27:19.651Z,14.91
2023-05-14T22:32:21.700Z,14.93
2023-05-14T22:37:23.936Z,14.95
2023-05-14T22:42:26.716Z,15.00
2023-05-14T22:47:28.822Z,15.02
2023-05-14T22:52:31.082Z,14.96
2023-05-14T22:57:34.134Z,14.81
2023-05-14T23:02:36.418Z,14.85
2023-05-14T23:07:41.166Z,14.73
2023-05-14T23:12:46.352Z,14.62
2023-05-14T23:17:48.793Z,14.61
2023-05-14T23:22:52.502Z,14.53
2023-05-14T23:27:54.472Z,14.26
2023-05-14T23:32:56.747Z,14.10
2023-05-14T23:37:58.934Z,13.99
2023-05-14T23:43:01.304Z,14.15
2023-05-14T23:48:03.793Z,14.09
2023-05-14T23:53:06.086Z,14.24
2023-05-14T23:58:08.303Z,14.20
